createdAt,value
2019-01-04T00:01:37.952Z,1.30
2019-01-04T00:04:27.771Z,0.93
2019-01-04T00:06:59.842Z,1.10
2019-01-04T00:09:29.311Z,1.17
2019-01-04T00:11:58.816Z,1.10
2019-01-04T00:14:28.361Z,1.00
2019-01-04T00:16:57.967Z,1.10
2019-01-04T00:19:27.385Z,1.20
2019-01-04T00:22:15.810Z,1.30
2019-01-04T00:27:44.907Z,1.30
2019-01-04T00:30:14.920Z,1.43
2019-01-04T00:32:44.357Z,1.30
2019-01-04T00:35:14.620Z,1.13
2019-01-04T00:40:48.804Z,0.93
2019-01-04T00:43:18.749Z,1.20
2019-01-04T00:45:48.178Z,1.20
2019-01-04T00:48:17.681Z,1.50
2019-01-04T00:50:47.109Z,1.13
2019-01-04T00:53:16.512Z,1.30
2019-01-04T00:56:23.942Z,1.00
2019-01-04T00:59:31.432Z,1.00
2019-01-04T01:02:11.959Z,1.00
2019-01-04T01:05:20.051Z,1.20
2019-01-04T01:08:34.860Z,1.30
2019-01-04T01:11:45.391Z,1.00
2019-01-04T01:14:52.915Z,1.27
2019-01-04T01:18:00.337Z,1.10
2019-01-04T01:20:41.657Z,1.30
2019-01-04T01:23:45.846Z,1.07
2019-01-04T01:26:56.924Z,1.37
2019-01-04T01:30:05.467Z,1.90
2019-01-04T01:33:12.991Z,1.17
2019-01-04T01:36:20.573Z,1.20
2019-01-04T01:39:28.357Z,1.63
2019-01-04T01:42:36.081Z,1.40
2019-01-04T01:45:43.564Z,1.53
2019-01-04T01:48:24.361Z,1.20
2019-01-04T01:51:05.321Z,1.30
2019-01-04T01:53:54.395Z,1.23
2019-01-04T01:56:43.275Z,1.13
2019-01-04T01:59:12.674Z,1.23
2019-01-04T02:01:42.297Z,1.27
2019-01-04T02:04:11.706Z,1.13
2019-01-04T02:06:43.646Z,1.70
2019-01-04T02:09:12.884Z,1.17
2019-01-04T02:11:42.388Z,1.40
2019-01-04T02:14:11.909Z,1.23
2019-01-04T02:16:44.885Z,1.67
2019-01-04T02:19:33.330Z,1.10
2019-01-04T02:22:02.987Z,1.10
2019-01-04T02:24:32.399Z,1.30
2019-01-04T02:27:02.485Z,1.40
2019-01-04T02:29:32.014Z,1.00
2019-01-04T02:32:01.415Z,1.10
2019-01-04T02:34:30.933Z,1.27
2019-01-04T02:37:00.590Z,1.30
2019-01-04T02:39:30.003Z,0.97
2019-01-04T02:41:59.674Z,1.70
2019-01-04T02:44:29.093Z,1.07
2019-01-04T02:46:58.921Z,1.53
2019-01-04T02:49:28.399Z,1.50
2019-01-04T02:51:57.845Z,1.33
2019-01-04T02:54:46.695Z,1.83
2019-01-04T03:00:10.101Z,1.50
2019-01-04T03:02:58.602Z,1.30
2019-01-04T03:05:28.038Z,1.67
2019-01-04T03:07:57.510Z,1.30
2019-01-04T03:10:26.938Z,2.07
2019-01-04T03:12:56.683Z,1.27
2019-01-04T03:15:26.083Z,1.17
2019-01-04T03:17:56.236Z,0.97
2019-01-04T03:20:25.664Z,1.27
2019-01-04T03:22:55.361Z,1.23
2019-01-04T03:25:43.898Z,1.80
2019-01-04T03:28:13.342Z,1.60
2019-01-04T03:33:33.169Z,1.20
2019-01-04T03:36:02.744Z,1.47
2019-01-04T03:38:32.190Z,1.30
2019-01-04T03:41:02.146Z,1.40
2019-01-04T03:43:31.615Z,1.30
2019-01-04T03:46:20.267Z,1.10
2019-01-04T03:49:09.103Z,1.17
2019-01-04T03:52:02.757Z,1.30
2019-01-04T03:54:43.528Z,1.53
2019-01-04T03:57:24.184Z,1.43
2019-01-04T03:59:54.711Z,1.20
2019-01-04T04:02:27.190Z,1.20
2019-01-04T04:04:56.797Z,1.77
2019-01-04T04:07:26.221Z,1.40
2019-01-04T04:09:55.765Z,1.57
2019-01-04T04:12:44.227Z,1.60
2019-01-04T04:15:21.032Z,1.30
2019-01-04T04:17:50.665Z,1.17
2019-01-04T04:20:39.215Z,1.77
2019-01-04T04:23:08.748Z,1.40
2019-01-04T04:25:38.480Z,1.30
2019-01-04T04:28:08.297Z,1.73
2019-01-04T04:30:56.875Z,1.50
2019-01-04T04:33:26.510Z,1.90
2019-01-04T04:35:57.607Z,1.57
2019-01-04T04:38:46.149Z,1.30
2019-01-04T04:41:26.746Z,1.40
2019-01-04T04:43:56.602Z,1.27
2019-01-04T04:46:26.052Z,1.90
2019-01-04T04:48:55.699Z,1.40
2019-01-04T04:51:44.194Z,1.40
2019-01-04T04:54:13.853Z,1.73
2019-01-04T04:56:43.310Z,1.30
2019-01-04T04:59:12.769Z,2.00
2019-01-04T05:01:42.217Z,1.70
2019-01-04T05:04:30.715Z,1.47
2019-01-04T05:07:11.506Z,1.70
2019-01-04T05:09:45.699Z,1.40
2019-01-04T05:12:15.141Z,1.60
2019-01-04T05:14:44.594Z,1.50
2019-01-04T05:17:14.029Z,1.67
2019-01-04T05:19:43.452Z,1.20
2019-01-04T05:22:12.889Z,1.63
2019-01-04T05:25:02.654Z,1.23
2019-01-04T05:30:22.945Z,1.83
2019-01-04T05:32:53.617Z,1.67
2019-01-04T05:35:23.211Z,1.73
2019-01-04T05:37:54.338Z,1.50
2019-01-04T05:40:23.907Z,1.57
2019-01-04T05:42:53.342Z,1.20
2019-01-04T05:45:23.001Z,1.50
2019-01-04T05:47:52.455Z,1.53
2019-01-04T05:55:47.011Z,1.60
2019-01-04T06:00:55.349Z,1.20
2019-01-04T06:03:25.003Z,1.70
2019-01-04T06:05:55.124Z,1.40
2019-01-04T06:08:36.042Z,1.50
2019-01-04T06:11:05.576Z,1.97
2019-01-04T06:13:35.003Z,1.40
2019-01-04T06:16:04.511Z,1.80
2019-01-04T06:18:33.924Z,2.20
2019-01-04T06:21:03.391Z,1.40
2019-01-04T06:23:32.834Z,1.60
2019-01-04T06:26:02.400Z,1.57
2019-01-04T06:28:31.823Z,1.80
2019-01-04T06:31:01.268Z,1.87
2019-01-04T06:33:30.705Z,1.70
2019-01-04T06:36:00.097Z,1.60
2019-01-04T06:38:29.723Z,2.30
2019-01-04T06:40:59.117Z,1.40
2019-01-04T06:43:28.558Z,1.70
2019-01-04T06:45:58.018Z,1.33
2019-01-04T06:48:30.896Z,1.70
2019-01-04T06:51:00.302Z,1.57
2019-01-04T06:53:30.110Z,1.60
2019-01-04T06:56:03.728Z,1.90
2019-01-04T06:58:52.183Z,1.80
2019-01-04T07:01:22.043Z,1.53
2019-01-04T07:03:54.293Z,1.63
2019-01-04T07:06:23.973Z,1.77
2019-01-04T07:09:06.532Z,1.60
2019-01-04T07:11:36.047Z,2.10
2019-01-04T07:14:08.061Z,1.43
2019-01-04T07:16:37.499Z,3.07
2019-01-04T07:19:07.005Z,1.93
2019-01-04T07:21:36.535Z,1.87
2019-01-04T07:24:06.074Z,1.50
2019-01-04T07:29:10.449Z,1.70
2019-01-04T07:31:40.376Z,2.67
2019-01-04T07:34:11.467Z,2.10
2019-01-04T07:36:41.019Z,2.10
2019-01-04T07:39:31.200Z,1.80
2019-01-04T07:44:45.037Z,1.97
2019-01-04T07:47:28.127Z,2.00
2019-01-04T07:49:57.661Z,2.10
2019-01-04T07:52:27.150Z,2.60
2019-01-04T07:54:56.567Z,1.80
2019-01-04T08:00:25.308Z,2.00
2019-01-04T08:03:06.384Z,1.97
2019-01-04T08:05:47.359Z,2.10
2019-01-04T08:08:17.017Z,2.13
2019-01-04T08:10:46.439Z,1.83
2019-01-04T08:13:15.899Z,1.57
2019-01-04T08:18:26.252Z,2.00
2019-01-04T08:26:22.558Z,1.73
2019-01-04T08:28:55.317Z,1.80
2019-01-04T08:31:24.908Z,1.77
2019-01-04T08:33:54.608Z,2.20
2019-01-04T08:41:56.482Z,3.47
2019-01-04T08:44:25.921Z,2.37
2019-01-04T08:46:55.400Z,3.10
2019-01-04T08:49:24.955Z,2.20
2019-01-04T08:52:13.257Z,2.03
2019-01-04T08:54:56.948Z,2.07
2019-01-04T08:57:26.500Z,1.50
2019-01-04T08:59:56.286Z,2.50
2019-01-04T09:05:01.431Z,2.10
2019-01-04T09:07:43.259Z,2.50
2019-01-04T09:10:12.768Z,2.50
2019-01-04T09:12:42.316Z,3.10
2019-01-04T09:15:12.236Z,2.17
2019-01-04T09:17:41.704Z,2.00
2019-01-04T09:20:11.853Z,2.37
2019-01-04T09:22:42.277Z,2.30
2019-01-04T09:25:12.222Z,2.20
2019-01-04T09:27:41.657Z,1.90
2019-01-04T09:30:51.963Z,2.57
2019-01-04T09:33:21.526Z,2.10
2019-01-04T09:35:51.205Z,2.57
2019-01-04T09:38:20.793Z,2.73
2019-01-04T09:41:01.989Z,2.33
2019-01-04T09:43:31.538Z,2.10
2019-01-04T09:46:01.336Z,2.43
2019-01-04T09:48:30.743Z,2.20
2019-01-04T09:51:00.585Z,2.00
2019-01-04T09:56:18.517Z,1.87
2019-01-04T09:58:47.954Z,1.80
2019-01-04T10:01:17.926Z,2.00
2019-01-04T10:03:47.414Z,2.00
2019-01-04T10:06:17.245Z,1.80
2019-01-04T10:08:57.987Z,2.00
2019-01-04T10:11:27.534Z,1.90
2019-01-04T10:13:56.938Z,2.37
2019-01-04T10:16:26.574Z,2.07
2019-01-04T10:18:56.796Z,1.80
2019-01-04T10:21:27.217Z,2.10
2019-01-04T10:23:56.661Z,1.70
2019-01-04T10:26:45.511Z,1.73
2019-01-04T10:29:15.152Z,1.70
2019-01-04T10:31:44.583Z,1.43
2019-01-04T10:34:14.065Z,1.60
2019-01-04T10:37:02.653Z,1.50
2019-01-04T10:39:32.123Z,1.93
2019-01-04T10:42:01.739Z,1.80
2019-01-04T10:44:31.167Z,1.40
2019-01-04T10:47:19.974Z,1.80
2019-01-04T10:49:49.478Z,1.63
2019-01-04T10:52:19.006Z,2.00
2019-01-04T10:54:48.454Z,1.63
2019-01-04T10:57:17.876Z,1.80
2019-01-04T10:59:47.305Z,2.00
2019-01-04T11:02:16.917Z,1.50
2019-01-04T11:04:46.329Z,1.70
2019-01-04T11:07:15.958Z,1.57
2019-01-04T11:09:45.502Z,2.13
2019-01-04T11:12:15.950Z,1.80
2019-01-04T11:14:46.520Z,2.07
2019-01-04T11:19:50.932Z,1.87
2019-01-04T11:22:58.306Z,1.73
2019-01-04T11:28:30.612Z,1.73
2019-01-04T11:31:26.522Z,1.83
2019-01-04T11:34:28.273Z,2.23
2019-01-04T11:37:35.610Z,1.67
2019-01-04T11:40:43.034Z,1.90
2019-01-04T11:43:44.750Z,1.63
2019-01-04T11:46:52.224Z,1.63
2019-01-04T11:49:33.625Z,1.70
2019-01-04T11:52:31.012Z,2.10
2019-01-04T11:55:15.626Z,2.10
2019-01-04T11:57:45.294Z,2.00
2019-01-04T12:00:14.805Z,1.77
2019-01-04T12:02:44.476Z,2.53
2019-01-04T12:05:36.252Z,1.80
2019-01-04T12:08:24.736Z,1.70
2019-01-04T12:10:54.284Z,2.20
2019-01-04T12:13:23.780Z,2.27
2019-01-04T12:15:53.310Z,1.53
2019-01-04T12:18:23.180Z,2.17
2019-01-04T12:20:52.813Z,1.83
2019-01-04T12:23:22.447Z,2.03
2019-01-04T12:26:11.005Z,1.67
2019-01-04T12:28:52.059Z,1.90
2019-01-04T12:31:21.635Z,1.70
2019-01-04T12:33:51.217Z,1.57
2019-01-04T12:39:09.814Z,2.03
2019-01-04T12:44:29.414Z,1.70
2019-01-04T12:46:58.831Z,1.77
2019-01-04T12:49:28.220Z,2.17
2019-01-04T12:51:57.646Z,1.63
2019-01-04T12:54:27.073Z,1.83
2019-01-04T12:56:56.843Z,1.53
2019-01-04T13:02:01.492Z,1.53
2019-01-04T13:04:30.940Z,2.10
2019-01-04T13:07:00.495Z,1.80
2019-01-04T13:09:29.912Z,2.17
2019-01-04T13:11:59.355Z,1.40
2019-01-04T13:14:28.779Z,2.47
2019-01-04T13:16:58.212Z,1.60
2019-01-04T13:19:46.941Z,1.73
2019-01-04T13:22:16.409Z,1.40
2019-01-04T13:24:48.051Z,1.47
2019-01-04T13:27:17.530Z,1.30
2019-01-04T13:29:53.060Z,2.60
2019-01-04T13:32:22.527Z,2.60
2019-01-04T13:34:52.381Z,1.80
2019-01-04T13:37:22.029Z,1.33
2019-01-04T13:39:54.273Z,1.93
2019-01-04T13:42:25.695Z,1.57
2019-01-04T13:44:55.157Z,1.73
2019-01-04T13:47:24.793Z,1.50
2019-01-04T13:52:43.318Z,1.67
2019-01-04T13:55:12.720Z,1.53
2019-01-04T13:57:42.124Z,1.70
2019-01-04T14:00:11.830Z,1.67
2019-01-04T14:02:41.396Z,1.80
2019-01-04T14:05:29.904Z,1.50
2019-01-04T14:10:43.225Z,1.60
2019-01-04T14:13:12.810Z,1.53
2019-01-04T14:15:42.726Z,1.50
2019-01-04T14:18:12.204Z,1.40
2019-01-04T14:20:41.618Z,1.50
2019-01-04T14:23:11.139Z,1.60
2019-01-04T14:25:40.738Z,1.53
2019-01-04T14:28:12.927Z,1.23
2019-01-04T14:30:42.462Z,1.57
2019-01-04T14:33:11.913Z,1.50
2019-01-04T14:35:41.542Z,1.30
2019-01-04T14:38:27.083Z,1.10
2019-01-04T14:40:44.085Z,1.50
2019-01-04T14:43:13.882Z,1.30
2019-01-04T14:45:43.294Z,1.40
2019-01-04T14:48:20.329Z,2.27
2019-01-04T14:51:09.093Z,1.30
2019-01-04T14:53:38.507Z,1.50
2019-01-04T14:56:08.427Z,1.50
2019-01-04T14:58:38.142Z,1.30
2019-01-04T15:01:08.036Z,1.50
2019-01-04T15:04:13.341Z,1.30
2019-01-04T15:06:54.030Z,1.47
2019-01-04T15:09:23.463Z,1.53
2019-01-04T15:11:52.873Z,1.73
2019-01-04T15:14:25.359Z,1.70
2019-01-04T15:16:55.007Z,1.70
2019-01-04T15:19:24.429Z,3.17
2019-01-04T15:21:54.099Z,1.50
2019-01-04T15:24:23.826Z,1.80
2019-01-04T15:26:53.328Z,1.33
2019-01-04T15:29:22.765Z,1.60
2019-01-04T15:31:52.306Z,1.53
2019-01-04T15:34:21.772Z,1.50
2019-01-04T15:36:51.307Z,1.30
2019-01-04T15:39:20.982Z,1.70
2019-01-04T15:42:09.420Z,1.50
2019-01-04T15:44:38.995Z,1.30
2019-01-04T15:47:11.528Z,1.53
2019-01-04T15:49:41.126Z,1.47
2019-01-04T15:52:10.710Z,1.33
2019-01-04T15:54:40.288Z,1.40
2019-01-04T15:57:09.844Z,1.77
2019-01-04T15:59:39.295Z,1.87
2019-01-04T16:02:10.440Z,1.30
2019-01-04T16:04:40.027Z,1.93
2019-01-04T16:10:04.403Z,1.30
2019-01-04T16:12:33.946Z,1.50
2019-01-04T16:15:03.388Z,1.50
2019-01-04T16:17:32.871Z,1.50
2019-01-04T16:20:02.297Z,1.40
2019-01-04T16:22:31.751Z,1.70
2019-01-04T16:25:01.291Z,1.60
2019-01-04T16:27:30.735Z,1.60
2019-01-04T16:30:00.172Z,1.47
2019-01-04T16:32:29.730Z,1.77
2019-01-04T16:34:59.289Z,1.40
2019-01-04T16:37:28.744Z,1.50
2019-01-04T16:39:58.330Z,1.30
2019-01-04T16:42:28.352Z,1.33
2019-01-04T16:44:57.788Z,1.77
2019-01-04T16:47:27.361Z,1.60
2019-01-04T16:49:56.906Z,1.57
2019-01-04T16:52:31.061Z,2.13
2019-01-04T16:55:00.599Z,1.60
2019-01-04T16:57:29.998Z,1.50
2019-01-04T16:59:59.417Z,1.60
2019-01-04T17:02:28.971Z,2.03
2019-01-04T17:04:58.421Z,1.90
2019-01-04T17:07:34.509Z,2.40
2019-01-04T17:10:15.919Z,1.40
2019-01-04T17:12:45.389Z,2.10
2019-01-04T17:15:14.837Z,1.50
2019-01-04T17:17:44.395Z,1.80
2019-01-04T17:20:13.917Z,2.00
2019-01-04T17:22:43.379Z,1.80
2019-01-04T17:25:31.882Z,1.70
2019-01-04T17:28:01.429Z,1.80
2019-01-04T17:30:31.396Z,1.93
2019-01-04T17:33:00.788Z,1.87
2019-01-04T17:35:30.325Z,2.10
2019-01-04T17:37:59.777Z,2.00
2019-01-04T17:40:29.234Z,1.70
2019-01-04T17:42:58.737Z,1.73
2019-01-04T17:45:28.178Z,1.90
2019-01-04T17:47:57.659Z,1.63
2019-01-04T17:50:27.271Z,2.40
2019-01-04T17:52:56.760Z,1.90
2019-01-04T17:58:01.710Z,1.80
2019-01-04T18:00:31.253Z,1.90
2019-01-04T18:03:01.082Z,1.70
2019-01-04T18:05:31.910Z,1.70
2019-01-04T18:08:01.337Z,1.97
2019-01-04T18:13:19.669Z,1.40
2019-01-04T18:15:49.285Z,1.90
2019-01-04T18:18:18.784Z,1.67
2019-01-04T18:20:48.686Z,1.83
2019-01-04T18:23:18.138Z,1.63
2019-01-04T18:25:51.682Z,1.83
2019-01-04T18:28:40.103Z,1.73
2019-01-04T18:31:09.777Z,2.20
2019-01-04T18:33:39.274Z,1.70
2019-01-04T18:38:45.167Z,1.63
2019-01-04T18:41:14.680Z,1.70
2019-01-04T18:43:44.217Z,1.63
2019-01-04T18:46:13.679Z,1.70
2019-01-04T18:48:43.119Z,1.40
2019-01-04T18:51:12.527Z,1.87
2019-01-04T18:53:42.049Z,1.50
2019-01-04T18:56:11.495Z,1.40
2019-01-04T18:58:40.981Z,1.40
2019-01-04T19:01:29.698Z,1.80
2019-01-04T19:06:44.772Z,1.60
2019-01-04T19:09:14.300Z,1.40
2019-01-04T19:11:44.089Z,1.20
2019-01-04T19:14:32.364Z,1.17
2019-01-04T19:17:01.778Z,1.40
2019-01-04T19:19:31.244Z,1.17
2019-01-04T19:22:00.707Z,1.50
2019-01-04T19:24:30.133Z,1.23
2019-01-04T19:26:59.543Z,1.43
2019-01-04T19:29:28.956Z,1.37
2019-01-04T19:31:58.442Z,1.40
2019-01-04T19:34:28.101Z,1.40
2019-01-04T19:36:57.635Z,1.40
2019-01-04T19:39:27.493Z,1.30
2019-01-04T19:41:56.922Z,1.53
2019-01-04T19:44:26.505Z,1.17
2019-01-04T19:46:55.951Z,1.20
2019-01-04T19:49:25.438Z,1.20
2019-01-04T19:51:55.020Z,1.50
2019-01-04T19:54:24.442Z,1.20
2019-01-04T19:56:54.001Z,1.10
2019-01-04T19:59:23.650Z,1.00
2019-01-04T20:01:53.225Z,1.43
2019-01-04T20:04:23.108Z,0.83
2019-01-04T20:07:55.262Z,1.00
2019-01-04T20:11:21.789Z,0.90
2019-01-04T20:17:43.242Z,0.80
2019-01-04T20:20:31.948Z,1.10
2019-01-04T20:26:04.032Z,1.50
2019-01-04T20:28:52.774Z,1.00
2019-01-04T20:34:27.885Z,1.20
2019-01-04T20:40:20.482Z,0.80
2019-01-04T20:43:08.800Z,1.03
2019-01-04T20:45:58.046Z,1.67
2019-01-04T20:48:46.378Z,0.87
2019-01-04T20:51:34.742Z,1.03
2019-01-04T20:54:23.017Z,1.00
2019-01-04T20:57:11.349Z,1.63
2019-01-04T21:00:00.171Z,1.40
2019-01-04T21:02:49.294Z,1.10
2019-01-04T21:05:37.725Z,0.80
2019-01-04T21:08:26.061Z,1.20
2019-01-04T21:11:14.445Z,1.07
2019-01-04T21:14:02.797Z,1.20
2019-01-04T21:16:51.132Z,1.03
2019-01-04T21:19:58.607Z,1.20
2019-01-04T21:22:46.923Z,1.10
2019-01-04T21:25:35.390Z,1.30
2019-01-04T21:28:23.682Z,1.50
2019-01-04T21:31:12.025Z,1.20
2019-01-04T21:34:00.637Z,1.30
2019-01-04T21:36:49.371Z,1.10
2019-01-04T21:39:37.885Z,0.80
2019-01-04T21:42:26.266Z,1.00
2019-01-04T21:45:33.569Z,1.30
2019-01-04T21:48:22.021Z,1.17
2019-01-04T21:51:10.369Z,1.17
2019-01-04T21:53:58.815Z,1.03
2019-01-04T21:56:47.208Z,1.30
2019-01-04T21:59:35.674Z,0.90
2019-01-04T22:02:24.221Z,1.00
2019-01-04T22:05:10.661Z,1.30
2019-01-04T22:07:59.137Z,1.20
2019-01-04T22:10:47.430Z,0.80
2019-01-04T22:13:35.763Z,0.97
2019-01-04T22:16:24.221Z,0.90
2019-01-04T22:19:12.628Z,1.03
2019-01-04T22:21:55.018Z,1.10
2019-01-04T22:25:02.578Z,0.90
2019-01-04T22:27:50.985Z,1.27
2019-01-04T22:30:39.328Z,0.70
2019-01-04T22:33:28.410Z,0.90
2019-01-04T22:36:16.877Z,1.10
2019-01-04T22:39:19.539Z,1.10
2019-01-04T22:42:08.058Z,1.00
2019-01-04T22:44:56.613Z,0.93
2019-01-04T22:47:44.970Z,0.80
2019-01-04T22:50:33.463Z,0.80
2019-01-04T22:53:21.767Z,1.00
2019-01-04T22:56:10.657Z,1.40
2019-01-04T22:58:51.739Z,0.80
2019-01-04T23:01:40.155Z,0.80
2019-01-04T23:07:36.779Z,0.90
2019-01-04T23:10:25.560Z,0.73
2019-01-04T23:13:14.001Z,1.20
2019-01-04T23:16:03.900Z,1.37
2019-01-04T23:18:52.286Z,0.90
2019-01-04T23:22:18.622Z,1.00
2019-01-04T23:25:06.938Z,1.20
2019-01-04T23:30:45.684Z,1.00
2019-01-04T23:39:09.446Z,1.00
2019-01-04T23:41:57.784Z,1.00
2019-01-04T23:44:41.503Z,0.87
2019-01-04T23:47:32.633Z,0.70
2019-01-04T23:50:21.103Z,0.90
2019-01-04T23:56:18.414Z,1.00
2019-01-04T23:59:06.722Z,1.30
